Time;durP1;ratioP1;P1;durP2;ratioP2;P2;SDS_P1;SDS_P2;PMS_P1;PMS_P2;Temp;Humidity;BMP_temperature;BMP_pressure;BME280_temperature;BME280_humidity;BME280_pressure;Samples;Min_cycle;Max_cycle;Signal;HPM_P1;HPM_P2
2020/12/19 00:00:59;;;;;;;78.70;29.45;;;;;;;-0.34;100.00;100392.86;1770628;80;20889;-73
2020/12/19 00:03:32;;;;;;;79.22;31.48;;;;;;;-0.34;100.00;100397.67;1770939;80;21015;-72
2020/12/19 00:06:11;;;;;;;76.28;30.88;;;;;;;-0.33;100.00;100398.48;1770696;81;21133;-72
2020/12/19 00:08:38;;;;;;;84.40;30.48;;;;;;;-0.33;100.00;100403.27;1770791;80;21047;-73
2020/12/19 00:11:07;;;;;;;;;;;;;;;-0.32;100.00;100408.03;1773472;80;20992;-73
2020/12/19 00:13:51;;;;;;;79.62;29.15;;;;;;;-0.33;100.00;100408.53;1770726;81;20334;-72
2020/12/19 00:16:29;;;;;;;71.95;27.50;;;;;;;-0.33;100.00;100412.50;1770765;81;20920;-72
2020/12/19 00:19:06;;;;;;;;;;;;;;;;;;;;;
2020/12/19 00:21:40;;;;;;;85.75;31.93;;;;;;;-0.29;100.00;100416.47;1852191;77;23943;-72
2020/12/19 00:24:15;;;;;;;82.37;31.60;;;;;;;-0.35;100.00;100422.38;1818898;78;21477;-72
2020/12/19 00:26:43;;;;;;;79.40;30.40;;;;;;;-0.34;100.00;100417.92;1787968;78;21168;-74
2020/12/19 00:29:14;;;;;;;81.10;31.57;;;;;;;-0.34;100.00;100419.23;1721606;82;21470;-74
2020/12/19 00:31:47;;;;;;;76.17;29.42;;;;;;;-0.34;100.00;100421.88;1820017;78;20928;-74
2020/12/19 00:34:19;;;;;;;75.95;30.62;;;;;;;-0.34;100.00;100422.73;1749971;82;21047;-74
2020/12/19 00:37:01;;;;;;;67.15;25.88;;;;;;;-0.35;100.00;100419.73;1819900;78;20975;-74
2020/12/19 00:39:48;;;;;;;81.72;32.17;;;;;;;-0.33;100.00;100422.23;1816029;78;21094;-74
2020/12/19 00:45:36;;;;;;;77.82;32.38;;;;;;;-0.29;100.00;100415.66;1875904;75;23852;-72
2020/12/19 00:48:04;;;;;;;;;;;;;;;-0.33;100.00;100413.00;1822702;78;20960;-72
2020/12/19 00:50:38;;;;;;;75.42;28.42;;;;;;;-0.34;100.00;100412.17;1819886;78;21412;-72
2020/12/19 00:53:09;;;;;;;93.78;33.00;;;;;;;-0.34;100.00;100416.13;1819811;78;20876;-72
2020/12/19 00:55:42;;;;;;;85.40;29.48;;;;;;;-0.33;100.00;100416.45;1819468;78;20880;-72
2020/12/19 00:58:17;;;;;;;79.20;28.70;;;;;;;-0.33;100.00;100415.13;1790119;78;20994;-73
2020/12/19 01:00:52;;;;;;;80.07;32.58;;;;;;;-0.32;100.00;100419.44;1819927;78;21727;-74
2020/12/19 01:03:22;;;;;;;67.40;28.80;;;;;;;-0.31;100.00;100417.12;1820114;78;21462;-74
2020/12/19 01:06:02;;;;;;;77.45;29.70;;;;;;;-0.31;100.00;100416.30;1818060;78;20983;-74
2020/12/19 01:08:31;;;;;;;81.60;31.23;;;;;;;-0.31;100.00;100418.44;1819836;78;21069;-74
2020/12/19 01:11:06;;;;;;;81.22;32.03;;;;;;;-0.29;100.00;100422.25;1818836;78;21066;-72
2020/12/19 01:13:39;;;;;;;97.82;35.83;;;;;;;-0.29;100.00;100417.79;1824283;75;20892;-74
2020/12/19 01:16:20;;;;;;;80.10;31.52;;;;;;;-0.28;100.00;100418.11;1822750;75;21437;-73
2020/12/19 01:18:57;;;;;;;72.15;27.22;;;;;;;-0.28;100.00;100415.47;1792236;78;20964;-72
2020/12/19 01:21:30;;;;;;;72.85;28.75;;;;;;;-0.28;100.00;100418.11;1819705;78;20919;-73
2020/12/19 01:24:08;;;;;;;76.97;30.23;;;;;;;-0.26;100.00;100427.19;1804145;78;21558;-73
2020/12/19 01:27:00;;;;;;;;;;;;;;;;;;;;;
2020/12/19 01:29:34;;;;;;;80.30;33.13;;;;;;;-0.21;100.00;100422.25;1852150;77;24470;-72
2020/12/19 01:32:46;;;;;;;;;;;;;;;;;;;;;
2020/12/19 01:35:20;;;;;;;78.55;31.10;;;;;;;-0.19;100.00;100422.92;1852140;77;23246;-72
2020/12/19 01:37:54;;;;;;;81.85;31.75;;;;;;;-0.24;100.00;100427.36;1819782;78;20912;-73
2020/12/19 01:40:24;;;;;;;73.40;30.02;;;;;;;-0.23;100.00;100427.67;1819980;78;21250;-72
2020/12/19 01:42:56;;;;;;;74.30;29.27;;;;;;;-0.23;100.00;100429.00;1819766;78;21486;-74
2020/12/19 01:45:40;;;;;;;84.35;31.57;;;;;;;-0.22;100.00;100427.21;1819844;78;20955;-72
2020/12/19 01:48:26;;;;;;;86.35;32.67;;;;;;;-0.22;100.00;100434.63;1819836;78;21478;-72
2020/12/19 01:50:56;;;;;;;81.25;31.62;;;;;;;-0.21;100.00;100431.48;1816093;78;21057;-72
2020/12/19 01:53:25;;;;;;;74.03;31.52;;;;;;;-0.21;100.00;100430.17;1750170;82;22299;-73
2020/12/19 01:56:09;;;;;;;73.00;31.12;;;;;;;-0.22;100.00;100428.03;1819940;78;20922;-72
2020/12/19 01:58:43;;;;;;;75.35;30.15;;;;;;;-0.22;100.00;100428.53;1749996;82;21011;-73
2020/12/19 02:01:18;;;;;;;75.83;32.48;;;;;;;-0.22;100.00;100431.17;1815274;78;20924;-73
2020/12/19 02:03:59;;;;;;;68.85;28.90;;;;;;;-0.23;100.00;100430.31;1723415;82;21597;-73
2020/12/19 02:06:49;;;;;;;74.53;30.27;;;;;;;-0.22;100.00;100429.84;1816473;78;21446;-74
2020/12/19 02:09:29;;;;;;;74.30;28.27;;;;;;;-0.22;100.00;100432.48;1816925;78;20888;-73
2020/12/19 02:11:58;;;;;;;66.82;28.05;;;;;;;-0.21;100.00;100428.84;1749209;82;21173;-73
2020/12/19 02:14:31;;;;;;;63.83;26.55;;;;;;;-0.22;100.00;100425.39;1819935;78;26529;-73
2020/12/19 02:17:13;;;;;;;71.42;30.65;;;;;;;-0.22;100.00;100429.34;1819855;78;20896;-73
2020/12/19 02:19:56;;;;;;;69.55;26.33;;;;;;;-0.20;100.00;100424.39;1749936;82;21140;-73
2020/12/19 02:22:32;;;;;;;61.58;28.73;;;;;;;-0.22;100.00;100420.11;1819797;78;20979;-72
2020/12/19 02:25:10;;;;;;;72.53;29.45;;;;;;;-0.21;100.00;100426.21;1819808;78;21145;-73
2020/12/19 02:27:40;;;;;;;62.93;27.85;;;;;;;-0.20;100.00;100424.39;1749446;82;21564;-72
2020/12/19 02:30:09;;;;;;;62.08;25.50;;;;;;;-0.21;100.00;100423.57;1819750;78;21548;-74
2020/12/19 02:32:38;;;;;;;62.80;27.55;;;;;;;-0.20;100.00;100429.67;1750096;82;22291;-73
2020/12/19 02:36:00;;;;;;;64.42;24.40;;;;;;;-0.20;100.00;100419.94;1816579;78;21595;-73
2020/12/19 02:38:30;;;;;;;62.93;26.60;;;;;;;-0.20;100.00;100421.75;1819803;78;21125;-73
2020/12/19 02:41:01;;;;;;;60.23;25.52;;;;;;;-0.19;100.00;100421.60;1749800;82;20935;-73
2020/12/19 02:43:34;;;;;;;68.22;28.77;;;;;;;-0.18;100.00;100414.50;1811309;78;20916;-72
2020/12/19 02:46:05;;;;;;;56.90;25.85;;;;;;;-0.18;100.00;100418.46;1819486;78;21193;-73
2020/12/19 02:48:53;;;;;;;67.92;31.30;;;;;;;-0.18;100.00;100417.14;1607798;89;21194;-72
2020/12/19 02:51:32;;;;;;;60.43;30.20;;;;;;;-0.16;100.00;100418.62;1576810;89;20984;-73
2020/12/19 02:54:03;;;;;;;61.92;26.45;;;;;;;-0.16;100.00;100420.45;1605417;89;21144;-72
2020/12/19 02:56:47;;;;;;;57.62;26.12;;;;;;;-0.12;100.00;100418.64;1876632;76;22430;-73
2020/12/19 02:59:22;;;;;;;69.45;27.30;;;;;;;-0.15;100.00;100430.00;1815557;79;21003;-73
2020/12/19 03:04:53;;;;;;;62.35;25.85;;;;;;;-0.11;100.00;100422.10;1875755;76;22746;-73
2020/12/19 03:07:26;;;;;;;60.08;26.05;;;;;;;-0.16;100.00;100416.48;1816481;79;20892;-73
2020/12/19 03:10:01;;;;;;;48.05;23.57;;;;;;;-0.14;100.00;100424.58;1817546;79;21692;-73
2020/12/19 03:12:36;;;;;;;54.93;25.20;;;;;;;-0.15;100.00;100416.31;1797677;79;20919;-73
2020/12/19 03:15:06;;;;;;;60.25;27.02;;;;;;;-0.15;100.00;100422.09;1817306;79;21027;-73
2020/12/19 03:17:38;;;;;;;56.37;26.45;;;;;;;-0.14;100.00;100418.48;1817307;78;20924;-73
2020/12/19 03:20:15;;;;;;;56.53;27.07;;;;;;;-0.14;100.00;100417.98;1817441;78;20927;-73
2020/12/19 03:22:50;;;;;;;53.02;24.32;;;;;;;-0.14;100.00;100417.98;1813521;79;20968;-72
2020/12/19 03:25:39;;;;;;;61.28;26.42;;;;;;;-0.09;100.00;100419.63;1852115;77;22767;-74
2020/12/19 03:28:19;;;;;;;62.75;25.77;;;;;;;-0.09;100.00;100420.95;1844338;77;21800;-74
2020/12/19 03:33:42;;;;;;;60.23;26.68;;;;;;;-0.08;100.00;100418.62;1852247;77;22082;-72
2020/12/19 03:36:16;;;;;;;60.40;27.13;;;;;;;-0.11;100.00;100420.78;1819885;78;20915;-73
2020/12/19 03:41:43;;;;;;;62.80;27.15;;;;;;;-0.06;100.00;100414.02;1852201;77;22340;-72
2020/12/19 03:44:20;;;;;;;60.40;26.12;;;;;;;-0.08;100.00;100415.17;1815226;78;21514;-73
2020/12/19 03:46:53;;;;;;;61.35;28.77;;;;;;;-0.09;100.00;100414.85;1750121;82;22110;-74
2020/12/19 03:49:37;;;;;;;60.75;25.25;;;;;;;-0.03;100.00;100415.50;1846273;77;22507;-73
2020/12/19 03:52:10;;;;;;;61.48;28.17;;;;;;;-0.06;100.00;100419.30;1820696;78;20944;-74
2020/12/19 03:54:45;;;;;;;62.33;27.15;;;;;;;-0.06;100.00;100415.84;1823669;78;21359;-73
2020/12/19 03:57:16;;;;;;;62.67;28.33;;;;;;;-0.05;100.00;100414.84;1823839;78;21019;-74
2020/12/19 03:59:46;;;;;;;65.00;28.95;;;;;;;-0.05;100.00;100420.97;1824195;78;21027;-73
2020/12/19 04:02:19;;;;;;;;;;;;;;;-0.06;100.00;100421.94;1830902;76;20956;-74
2020/12/19 04:04:48;;;;;;;64.07;25.15;;;;;;;-0.05;100.00;100424.08;1824829;78;20144;-73
2020/12/19 04:07:23;;;;;;;59.53;26.45;;;;;;;-0.05;100.00;100417.48;1823726;78;22358;-73
2020/12/19 04:10:09;;;;;;;67.90;29.10;;;;;;;-0.07;100.00;100419.48;1823375;78;21602;-74
2020/12/19 04:12:57;;;;;;;66.57;28.45;;;;;;;-0.06;100.00;100419.80;1823647;78;20945;-73
2020/12/19 04:15:35;;;;;;;69.20;29.07;;;;;;;-0.07;100.00;100417.66;1821279;78;20921;-73
2020/12/19 04:18:10;;;;;;;69.42;28.87;;;;;;;-0.09;100.00;100421.45;1823564;78;21542;-72
2020/12/19 04:20:43;;;;;;;69.72;29.50;;;;;;;-0.10;100.00;100426.38;1794820;78;21293;-74
2020/12/19 04:23:14;;;;;;;69.45;28.70;;;;;;;-0.08;100.00;100428.37;1823543;78;20953;-72
2020/12/19 04:25:42;;;;;;;71.37;29.12;;;;;;;-0.09;100.00;100428.87;1823752;78;20925;-71
2020/12/19 04:28:12;;;;;;;69.12;31.87;;;;;;;-0.07;100.00;100431.36;1823672;78;21503;-70
2020/12/19 04:30:47;;;;;;;66.95;28.98;;;;;;;-0.07;100.00;100428.72;1823691;78;21443;-72
2020/12/19 04:33:38;;;;;;;93.60;39.23;;;;;;;-0.03;100.00;100428.70;1828989;76;31826;-72
2020/12/19 04:36:09;;;;;;;82.72;32.58;;;;;;;-0.06;100.00;100430.36;1855757;77;21046;-73
2020/12/19 04:38:40;;;;;;;84.70;31.15;;;;;;;-0.06;100.00;100431.67;1786213;80;21367;-71
2020/12/19 04:41:11;;;;;;;75.37;29.80;;;;;;;-0.07;100.00;100434.00;1789788;80;21485;-71
2020/12/19 04:43:50;;;;;;;88.30;29.60;;;;;;;-0.08;100.00;100429.19;1789654;80;21494;-73
2020/12/19 04:46:37;;;;;;;82.53;29.72;;;;;;;-0.08;100.00;100428.37;1789831;80;21003;-72
2020/12/19 04:49:13;;;;;;;78.95;32.95;;;;;;;-0.08;100.00;100430.50;1789825;80;21589;-72
2020/12/19 04:52:01;;;;;;;81.28;31.17;;;;;;;-0.07;100.00;100428.72;1789836;80;21270;-72
2020/12/19 04:54:41;;;;;;;87.90;34.90;;;;;;;-0.08;100.00;100425.23;1758792;80;25154;-72
2020/12/19 04:59:59;;;;;;;87.15;31.95;;;;;;;-0.06;100.00;100425.89;1852121;77;22012;-72
2020/12/19 05:02:27;;;;;;;;;;;;;;;-0.10;100.00;100432.98;1822664;78;20896;-72
2020/12/19 05:04:57;;;;;;;76.87;28.75;;;;;;;-0.11;100.00;100430.84;1819896;78;21373;-72
2020/12/19 05:07:30;;;;;;;81.55;30.52;;;;;;;-0.11;100.00;100432.66;1815326;78;21034;-72
2020/12/19 05:10:00;;;;;;;80.53;28.77;;;;;;;-0.12;100.00;100427.88;1789287;78;21585;-72
2020/12/19 05:12:29;;;;;;;80.12;27.82;;;;;;;-0.12;100.00;100430.98;1819894;78;20927;-72
2020/12/19 05:14:57;;;;;;;86.80;28.07;;;;;;;-0.11;100.00;100431.34;1819963;78;21102;-73
2020/12/19 05:18:00;;;;;;;66.97;26.17;;;;;;;-0.11;100.00;100432.66;1819776;78;21192;-72
2020/12/19 05:20:33;;;;;;;96.25;29.67;;;;;;;-0.11;100.00;100437.44;1819935;78;20943;-73
2020/12/19 05:23:07;;;;;;;82.08;27.05;;;;;;;-0.12;100.00;100432.31;1819887;78;20920;-74
2020/12/19 05:25:44;;;;;;;67.95;26.68;;;;;;;-0.12;100.00;100440.23;1819822;78;20959;-73
2020/12/19 05:28:16;;;;;;;79.05;27.75;;;;;;;-0.12;100.00;100438.44;1819919;78;21569;-73
2020/12/19 05:30:45;;;;;;;81.92;28.65;;;;;;;-0.11;100.00;100442.72;1819784;78;21365;-73
2020/12/19 05:33:29;;;;;;;;;;;;;;;;;;;;;
2020/12/19 05:36:09;;;;;;;79.37;24.60;;;;;;;-0.07;100.00;100440.59;1875904;76;23295;-72
2020/12/19 05:38:50;;;;;;;82.45;28.30;;;;;;;-0.10;100.00;100439.58;1814754;79;20872;-73
2020/12/19 05:41:27;;;;;;;75.17;28.05;;;;;;;-0.10;100.00;100444.85;1785133;80;21410;-73
2020/12/19 05:43:55;;;;;;;79.87;27.93;;;;;;;-0.09;100.00;100446.02;1785156;80;20998;-72
2020/12/19 05:46:31;;;;;;;78.78;29.52;;;;;;;-0.09;100.00;100451.30;1785222;80;20915;-72
2020/12/19 05:49:09;;;;;;;92.82;31.25;;;;;;;-0.06;100.00;100456.75;1785171;80;20927;-73
2020/12/19 05:51:42;;;;;;;109.95;55.10;;;;;;;-0.06;100.00;100462.84;1785160;80;21026;-73
2020/12/19 05:54:15;;;;;;;86.22;33.28;;;;;;;-0.05;100.00;100467.63;1785308;80;21360;-73
2020/12/19 05:56:52;;;;;;;75.67;27.45;;;;;;;-0.05;100.00;100469.80;1787343;80;20944;-72
2020/12/19 05:59:24;;;;;;;83.45;31.00;;;;;;;-0.04;100.00;100466.16;1757819;80;20955;-72
2020/12/19 06:02:00;;;;;;;92.17;31.42;;;;;;;-0.03;100.00;100474.39;1783565;80;20923;-73
2020/12/19 06:04:36;;;;;;;90.07;30.95;;;;;;;-0.02;100.00;100476.06;1786514;80;21046;-72
2020/12/19 06:07:37;;;;;;;80.38;29.85;;;;;;;0.04;100.00;100483.81;1821162;77;23433;-71
2020/12/19 06:10:12;;;;;;;76.17;26.10;;;;;;;0.02;100.00;100482.33;1823673;78;20904;-75
2020/12/19 06:13:25;;;;;;;78.20;28.30;;;;;;;0.06;100.00;100487.63;1852170;77;22204;-73
2020/12/19 06:16:15;;;;;;;84.72;27.82;;;;;;;0.01;100.00;100493.38;1819912;78;20915;-74
2020/12/19 06:19:19;;;;;;;86.65;29.48;;;;;;;0.03;100.00;100493.23;1820137;78;21149;-73
2020/12/19 06:22:06;;;;;;;90.10;33.08;;;;;;;0.01;100.00;100496.02;1749864;82;20952;-72
2020/12/19 06:24:48;;;;;;;79.62;28.32;;;;;;;0.03;100.00;100503.30;1819976;78;21589;-73
2020/12/19 06:27:47;;;;;;;75.03;27.85;;;;;;;0.04;100.00;100512.85;1788610;78;21667;-73
2020/12/19 06:30:34;;;;;;;90.53;31.23;;;;;;;0.07;100.00;100511.20;1816611;78;20932;-73
2020/12/19 06:33:13;;;;;;;75.03;28.50;;;;;;;0.06;100.00;100513.52;1819835;78;21444;-73
2020/12/19 06:35:55;;;;;;;73.60;26.73;;;;;;;0.06;100.00;100506.92;1749926;82;21097;-72
2020/12/19 06:38:45;;;;;;;72.37;27.22;;;;;;;0.07;100.00;100508.56;1810158;78;21446;-73
2020/12/19 06:41:46;;;;;;;78.85;32.53;;;;;;;0.08;100.00;100513.38;1723898;82;20943;-73
2020/12/19 06:44:26;;;;;;;79.00;30.35;;;;;;;0.10;100.00;100520.61;1819940;78;20952;-73
2020/12/19 06:47:04;;;;;;;86.08;29.37;;;;;;;0.11;100.00;100518.32;1749981;81;21396;-73
2020/12/19 06:49:40;;;;;;;78.67;30.12;;;;;;;0.12;100.00;100519.95;1822240;77;20959;-73
2020/12/19 06:52:15;;;;;;;83.72;28.15;;;;;;;0.12;100.00;100520.81;1754255;80;20928;-73
2020/12/19 06:54:54;;;;;;;83.33;29.27;;;;;;;0.13;100.00;100513.70;1788008;78;21019;-73
2020/12/19 06:57:40;;;;;;;85.38;28.42;;;;;;;0.13;100.00;100522.45;1750141;82;21581;-74
2020/12/19 07:00:17;;;;;;;84.45;29.07;;;;;;;0.16;100.00;100517.34;1789039;78;20927;-73
2020/12/19 07:03:03;;;;;;;86.85;32.63;;;;;;;0.17;100.00;100521.14;1749451;82;21806;-72
2020/12/19 07:05:35;;;;;;;103.38;33.63;;;;;;;0.21;100.00;100517.17;1819937;78;21054;-74
2020/12/19 07:08:29;;;;;;;82.33;28.50;;;;;;;0.22;100.00;100521.95;1819844;78;20991;-71
2020/12/19 07:11:38;;;;;;;86.70;38.25;;;;;;;0.21;100.00;100528.23;1813736;78;21620;-72
2020/12/19 07:14:19;;;;;;;77.00;28.87;;;;;;;0.24;100.00;100519.98;1750021;82;21443;-74
2020/12/19 07:16:51;;;;;;;86.97;30.10;;;;;;;0.30;100.00;100521.98;1819657;78;21030;-73
2020/12/19 07:19:38;;;;;;;77.87;30.62;;;;;;;0.30;100.00;100521.98;1819914;78;20983;-72
2020/12/19 07:22:10;;;;;;;76.67;27.30;;;;;;;0.30;100.00;100516.70;1749860;82;20991;-71
2020/12/19 07:24:53;;;;;;;84.52;29.72;;;;;;;0.29;100.00;100522.14;1804008;78;20979;-72
2020/12/19 07:27:26;;;;;;;79.77;32.50;;;;;;;0.30;100.00;100527.27;1749555;82;21823;-73
2020/12/19 07:30:03;;;;;;;;;;;;;;;0.34;100.00;100532.56;1821838;78;20971;-71
2020/12/19 07:32:33;;;;;;;82.97;32.25;;;;;;;0.38;100.00;100527.77;1818096;78;20133;-72
2020/12/19 07:35:06;;;;;;;85.42;31.00;;;;;;;0.41;100.00;100528.25;1819091;78;20904;-73
2020/12/19 07:37:46;;;;;;;78.15;30.20;;;;;;;0.38;100.00;100533.05;1749477;82;21046;-73
2020/12/19 07:40:26;;;;;;;98.87;38.25;;;;;;;0.37;100.00;100528.77;1819223;78;21365;-73
2020/12/19 07:43:19;;;;;;;181.25;82.65;;;;;;;0.43;100.00;100525.45;1852096;77;22268;-72
2020/12/19 07:46:00;;;;;;;98.50;42.55;;;;;;;0.39;100.00;100528.94;1819995;78;20983;-72
2020/12/19 07:48:31;;;;;;;109.55;43.98;;;;;;;0.39;100.00;100524.98;1819861;78;22499;-72
2020/12/19 07:51:12;;;;;;;108.10;46.60;;;;;;;0.44;100.00;100525.78;1819522;78;20991;-74
2020/12/19 07:54:06;;;;;;;94.77;34.67;;;;;;;0.49;100.00;100521.33;1819887;78;21038;-74
2020/12/19 07:56:49;;;;;;;85.75;33.00;;;;;;;0.49;100.00;100521.33;1747815;81;21027;-74
2020/12/19 07:59:20;;;;;;;83.03;30.62;;;;;;;0.51;100.00;100527.28;1819939;78;21018;-73
2020/12/19 08:01:52;;;;;;;91.32;34.40;;;;;;;0.55;100.00;100529.42;1750015;82;22164;-74
2020/12/19 08:04:25;;;;;;;85.03;28.98;;;;;;;0.58;100.00;100525.13;1814878;78;21014;-73
2020/12/19 08:07:01;;;;;;;89.72;31.65;;;;;;;0.62;100.00;100526.96;1750043;82;21023;-74
2020/12/19 08:09:40;;;;;;;79.05;28.98;;;;;;;0.58;100.00;100527.77;1816704;78;21066;-73
2020/12/19 08:12:09;;;;;;;80.40;30.62;;;;;;;0.57;100.00;100533.23;1820014;78;21560;-74
2020/12/19 08:14:42;;;;;;;74.40;27.42;;;;;;;0.60;100.00;100536.86;1819783;78;21194;-74
2020/12/19 08:17:17;;;;;;;78.57;30.05;;;;;;;0.63;100.00;100536.02;1819907;78;21003;-74
2020/12/19 08:19:50;;;;;;;70.45;27.17;;;;;;;0.63;100.00;100533.88;1719627;82;20920;-73
2020/12/19 08:22:24;;;;;;;71.57;28.42;;;;;;;0.66;100.00;100526.94;1819846;78;20911;-74
2020/12/19 08:24:57;;;;;;;72.95;28.23;;;;;;;0.67;100.00;100527.29;1749667;82;20939;-73
2020/12/19 08:27:51;;;;;;;74.65;28.05;;;;;;;0.72;100.00;100524.98;1819847;78;21247;-73
2020/12/19 08:30:28;;;;;;;71.50;25.62;;;;;;;0.69;100.00;100513.42;1819719;78;21035;-74
2020/12/19 08:33:04;;;;;;;75.92;25.32;;;;;;;0.76;100.00;100517.52;1747876;82;21011;-74
2020/12/19 08:35:46;;;;;;;77.17;29.67;;;;;;;0.74;100.00;100506.32;1819928;78;20959;-74
2020/12/19 08:38:24;;;;;;;85.20;30.70;;;;;;;0.74;100.00;100511.61;1750018;81;21482;-74
2020/12/19 08:41:04;;;;;;;69.90;25.65;;;;;;;0.73;100.00;100502.01;1819894;78;21653;-73
2020/12/19 08:43:33;;;;;;;75.22;27.65;;;;;;;0.75;100.00;100505.31;1739227;82;21225;-72
2020/12/19 08:46:09;;;;;;;77.72;29.70;;;;;;;0.76;100.00;100508.28;1770037;81;20928;-73
2020/12/19 08:48:44;;;;;;;88.58;28.35;;;;;;;0.74;100.00;100503.68;1770063;81;21565;-73
2020/12/19 08:51:18;;;;;;;84.75;28.40;;;;;;;0.74;100.00;100498.39;1748957;81;21075;-73
2020/12/19 08:53:47;;;;;;;75.47;30.23;;;;;;;0.80;100.00;100494.56;1769712;81;22169;-73
2020/12/19 08:56:25;;;;;;;75.42;28.38;;;;;;;0.79;100.00;100495.57;1769521;81;21082;-72
2020/12/19 08:58:59;;;;;;;81.67;32.63;;;;;;;0.78;100.00;100499.69;1769110;81;21693;-72
2020/12/19 09:01:31;;;;;;;74.05;30.10;;;;;;;0.80;100.00;100498.53;1769285;81;20877;-73
2020/12/19 09:04:24;;;;;;;83.65;30.55;;;;;;;0.82;100.00;100497.87;1769457;81;21602;-72
2020/12/19 09:06:48;;;;;;;73.55;29.82;;;;;;;0.83;100.00;100503.51;1797574;79;21295;-72
2020/12/19 09:09:29;;;;;;;81.00;27.93;;;;;;;0.82;100.00;100495.73;1738774;82;21681;-72
2020/12/19 09:12:14;;;;;;;80.72;30.27;;;;;;;0.78;100.00;100494.41;1807912;79;21239;-72
2020/12/19 09:14:48;;;;;;;77.72;27.52;;;;;;;0.78;100.00;100502.33;1807972;79;21462;-73
2020/12/19 09:17:30;;;;;;;68.42;23.83;;;;;;;0.72;100.00;100499.05;1808108;79;21011;-72
2020/12/19 09:20:13;;;;;;;77.30;29.20;;;;;;;0.77;100.00;100498.88;1848661;77;23981;-72
2020/12/19 09:22:45;;;;;;;92.85;28.98;;;;;;;0.73;100.00;100498.05;1823674;78;20990;-73
2020/12/19 09:25:21;;;;;;;82.95;29.55;;;;;;;0.78;100.00;100495.73;1787643;80;21369;-72
2020/12/19 09:27:55;;;;;;;72.03;25.08;;;;;;;0.80;100.00;100495.07;1756475;81;21572;-73
2020/12/19 09:30:23;;;;;;;;;;;;;;;0.79;100.00;100496.89;1768757;81;21525;-73
2020/12/19 09:32:51;;;;;;;75.65;29.75;;;;;;;0.79;100.00;100493.43;1766416;81;20613;-72
2020/12/19 09:35:20;;;;;;;87.50;28.27;;;;;;;0.80;100.00;100494.56;1756504;81;21573;-72
2020/12/19 09:37:50;;;;;;;82.08;31.02;;;;;;;0.84;100.00;100493.75;1766183;81;21360;-74
2020/12/19 09:40:28;;;;;;;82.17;29.07;;;;;;;0.89;100.00;100492.75;1757839;79;20999;-73
2020/12/19 09:42:56;;;;;;;78.22;28.20;;;;;;;0.85;100.00;100492.24;1770450;78;21007;-73
2020/12/19 09:45:29;;;;;;;73.87;29.40;;;;;;;0.90;100.00;100489.61;1756668;81;21678;-72
2020/12/19 09:48:00;;;;;;;63.63;24.70;;;;;;;0.93;100.00;100487.94;1766292;81;20946;-72
2020/12/19 09:50:28;;;;;;;;;;;;;;;0.96;100.00;100491.09;1759098;81;21457;-73
2020/12/19 09:53:00;;;;;;;66.07;24.10;;;;;;;0.94;100.00;100483.81;1787519;80;20115;-72
2020/12/19 09:55:31;;;;;;;56.63;24.37;;;;;;;0.95;100.00;100485.45;1759794;80;20927;-72
2020/12/19 09:58:00;;;;;;;74.20;28.02;;;;;;;0.98;100.00;100477.21;1787618;80;20928;-72
2020/12/19 10:00:30;;;;;;;70.30;29.92;;;;;;;1.01;100.00;100484.80;1756349;81;21477;-72
2020/12/19 10:02:59;;;;;;;69.00;28.87;;;;;;;1.03;100.00;100483.31;1766217;81;22265;-73
2020/12/19 10:05:28;;;;;;;70.45;28.77;;;;;;;1.00;100.00;100483.12;1756426;81;21494;-73
2020/12/19 10:07:58;;;;;;;62.58;24.40;;;;;;;1.03;100.00;100481.50;1766141;81;20895;-72
2020/12/19 10:10:35;;;;;;;62.75;24.15;;;;;;;1.03;100.00;100485.96;1751313;81;21157;-74
2020/12/19 10:13:05;;;;;;;58.28;24.37;;;;;;;1.04;100.00;100483.13;1766207;81;20983;-73
2020/12/19 10:15:35;;;;;;;56.55;26.35;;;;;;;1.05;100.00;100484.80;1756477;81;22298;-73
2020/12/19 10:18:03;;;;;;;77.30;29.98;;;;;;;1.07;100.00;100478.00;1765804;81;21022;-74
2020/12/19 10:20:36;;;;;;;63.50;24.43;;;;;;;1.10;100.00;100476.33;1743766;82;21051;-74
2020/12/19 10:23:04;;;;;;;59.75;25.40;;;;;;;1.09;100.00;100469.91;1743558;82;21015;-73
2020/12/19 10:25:35;;;;;;;64.35;25.23;;;;;;;1.13;100.00;100474.70;1743471;82;21008;-74
2020/12/19 10:28:06;;;;;;;62.35;25.62;;;;;;;1.18;100.00;100472.87;1743644;82;21274;-74
2020/12/19 10:30:35;;;;;;;64.85;23.98;;;;;;;1.24;100.00;100473.49;1731084;82;21013;-73
2020/12/19 10:33:06;;;;;;;56.20;22.95;;;;;;;1.23;100.00;100481.11;1742250;82;20949;-74
2020/12/19 10:35:36;;;;;;;63.98;25.70;;;;;;;1.24;100.00;100477.46;1731013;83;20993;-74
2020/12/19 10:38:10;;;;;;;61.45;26.00;;;;;;;1.27;100.00;100486.37;1717396;82;21026;-74
2020/12/19 10:40:39;;;;;;;63.35;26.07;;;;;;;1.26;100.00;100476.80;1731045;83;21204;-74
2020/12/19 10:43:12;;;;;;;61.00;26.23;;;;;;;1.26;100.00;100480.77;1742322;82;21638;-74
2020/12/19 10:45:48;;;;;;;58.35;24.40;;;;;;;1.25;100.00;100477.77;1701773;84;21017;-74
2020/12/19 10:48:23;;;;;;;66.15;25.40;;;;;;;1.23;100.00;100474.00;1712657;83;21027;-73
2020/12/19 10:50:57;;;;;;;62.70;25.68;;;;;;;1.20;100.00;100476.14;1701793;84;21619;-75
2020/12/19 10:53:29;;;;;;;61.63;24.70;;;;;;;1.19;100.00;100479.29;1712708;83;21284;-73
2020/12/19 10:56:05;;;;;;;74.12;29.15;;;;;;;1.17;100.00;100477.30;1701715;84;20934;-73
2020/12/19 10:58:34;;;;;;;64.60;26.90;;;;;;;1.18;100.00;100482.94;1712684;83;21015;-73
2020/12/19 11:01:11;;;;;;;77.92;30.90;;;;;;;1.21;100.00;100483.09;1700827;83;20953;-74
2020/12/19 11:03:42;;;;;;;76.92;30.12;;;;;;;1.23;100.00;100492.51;1712707;83;20948;-73
2020/12/19 11:06:22;;;;;;;72.15;27.30;;;;;;;1.26;100.00;100487.38;1701754;84;21413;-74
2020/12/19 11:08:51;;;;;;;82.97;27.80;;;;;;;1.28;100.00;100488.86;1712611;83;20968;-73
2020/12/19 11:11:29;;;;;;;78.40;30.23;;;;;;;1.24;100.00;100485.39;1676846;84;21576;-73
2020/12/19 11:13:57;;;;;;;79.22;30.05;;;;;;;1.21;100.00;100491.03;1712592;83;21059;-74
2020/12/19 11:16:28;;;;;;;73.28;29.65;;;;;;;1.22;100.00;100488.20;1701702;84;21080;-74
2020/12/19 11:18:57;;;;;;;68.47;26.30;;;;;;;1.25;100.00;100492.32;1713922;83;21358;-73
2020/12/19 11:21:28;;;;;;;77.78;29.37;;;;;;;1.23;100.00;100491.19;1715426;83;20936;-73
2020/12/19 11:23:58;;;;;;;72.95;29.02;;;;;;;1.26;100.00;100482.09;1745130;82;20943;-73
2020/12/19 11:26:37;;;;;;;72.22;28.85;;;;;;;1.21;100.00;100485.74;1782529;80;20888;-74
2020/12/19 11:29:07;;;;;;;78.83;29.18;;;;;;;1.24;100.00;100481.42;1782439;80;20976;-73
2020/12/19 11:31:39;;;;;;;88.05;32.63;;;;;;;1.23;100.00;100482.44;1715477;83;21517;-74
2020/12/19 11:34:13;;;;;;;71.95;29.82;;;;;;;1.25;100.00;100483.06;1722233;83;20944;-73
2020/12/19 11:36:46;;;;;;;94.95;34.98;;;;;;;1.25;100.00;100478.63;1715455;83;21020;-73
2020/12/19 11:39:22;;;;;;;80.62;31.52;;;;;;;1.36;100.00;100477.92;1814599;77;22768;-73
2020/12/19 11:41:56;;;;;;;77.87;33.80;;;;;;;1.23;100.00;100477.14;1761645;81;21003;-73
2020/12/19 11:44:27;;;;;;;81.00;31.57;;;;;;;1.27;100.00;100485.05;1761350;81;21382;-73
2020/12/19 11:46:55;;;;;;;80.75;31.00;;;;;;;1.26;100.00;100479.44;1761483;81;21014;-73
2020/12/19 11:49:27;;;;;;;81.55;29.98;;;;;;;1.22;100.00;100480.27;1761549;81;21015;-74
2020/12/19 11:52:01;;;;;;;80.90;33.58;;;;;;;1.23;100.00;100479.28;1761613;81;21011;-74
2020/12/19 11:54:29;;;;;;;75.00;30.50;;;;;;;1.26;100.00;100476.30;1761589;81;20923;-75
2020/12/19 11:57:02;;;;;;;77.17;30.62;;;;;;;1.28;100.00;100477.45;1761434;81;21413;-73
2020/12/19 11:59:31;;;;;;;86.25;29.92;;;;;;;1.26;100.00;100471.00;1761539;81;20939;-73
2020/12/19 12:02:04;;;;;;;81.50;28.98;;;;;;;1.24;100.00;100469.52;1761522;81;20921;-74
2020/12/19 12:04:36;;;;;;;83.55;31.27;;;;;;;1.23;100.00;100471.35;1761524;80;21604;-73
2020/12/19 12:07:07;;;;;;;87.65;30.70;;;;;;;1.25;100.00;100473.34;1761573;81;21002;-73